createdAt,value
2023-03-25T09:18:01.788Z,952.2906494
2023-03-25T09:19:02.760Z,952.2962646
2023-03-25T09:20:33.667Z,952.2877197
2023-03-25T09:21:34.180Z,952.3388062
2023-03-25T09:22:34.662Z,952.3512573
2023-03-25T09:23:35.283Z,952.3930664
2023-03-25T09:24:35.905Z,952.380127
2023-03-25T09:25:36.406Z,952.4120483
2023-03-25T09:26:36.955Z,952.5344238
2023-03-25T09:27:37.432Z,952.5356445
2023-03-25T09:28:37.899Z,952.5979614
2023-03-25T09:29:39.003Z,952.6617432
2023-03-25T09:30:39.677Z,952.576416
2023-03-25T09:31:40.237Z,952.7372437
2023-03-25T09:32:41.308Z,952.6600952
2023-03-25T09:33:42.077Z,952.6353149
2023-03-25T09:34:42.633Z,952.7432861
2023-03-25T09:35:43.240Z,952.7385254
2023-03-25T09:36:44.627Z,952.6774902
2023-03-25T09:37:45.126Z,952.7388916
2023-03-25T09:38:45.641Z,952.7114258
2023-03-25T09:39:46.981Z,952.7418823
2023-03-25T09:40:47.423Z,952.7681885
2023-03-25T09:41:47.928Z,952.9165649
2023-03-25T09:42:49.246Z,952.7979736
2023-03-25T09:43:49.738Z,952.6621704
2023-03-25T09:44:50.136Z,952.609436
2023-03-25T09:45:50.781Z,952.6286011
2023-03-25T09:46:51.071Z,952.6204834
2023-03-25T09:47:51.597Z,952.5513916
2023-03-25T09:48:52.154Z,952.5610352
2023-03-25T09:49:53.482Z,952.6275635
2023-03-25T09:50:53.921Z,952.6696777
2023-03-25T09:51:54.410Z,952.6224976
2023-03-25T09:52:54.835Z,952.6296997
2023-03-25T09:53:55.324Z,952.6716919
2023-03-25T09:54:55.760Z,952.649231
2023-03-25T09:55:56.188Z,952.6523438
2023-03-25T09:56:56.663Z,952.6987305
2023-03-25T09:57:57.181Z,952.6693115
2023-03-25T09:58:57.614Z,952.6504517
2023-03-25T09:59:58.992Z,952.7157593
2023-03-25T10:00:59.453Z,952.6960449
2023-03-25T10:01:59.851Z,952.8357544
2023-03-25T10:03:00.997Z,952.6577148
2023-03-25T10:04:02.075Z,952.7479858
2023-03-25T10:05:32.986Z,952.7754517
2023-03-25T10:06:33.467Z,952.717041
2023-03-25T10:07:33.899Z,952.7288818
2023-03-25T10:08:34.342Z,952.6885376
2023-03-25T10:09:35.819Z,952.6102905
2023-03-25T10:10:36.291Z,952.796875
2023-03-25T10:11:36.758Z,952.7235718
2023-03-25T10:12:37.204Z,952.663269
2023-03-25T10:13:37.629Z,952.7224731
2023-03-25T10:14:38.189Z,952.6815796
2023-03-25T10:15:38.689Z,952.9076538
2023-03-25T10:16:39.213Z,952.8047485
2023-03-25T10:17:39.730Z,952.8549194
2023-03-25T10:18:40.171Z,952.706543
2023-03-25T10:19:40.679Z,952.7128906
2023-03-25T10:20:41.130Z,952.6557617
2023-03-25T10:21:41.621Z,952.7849731
2023-03-25T10:22:42.981Z,952.6584473
2023-03-25T10:23:43.436Z,952.8135376
2023-03-25T10:24:43.869Z,952.6723633
2023-03-25T10:25:44.357Z,952.7346802
2023-03-25T10:26:44.830Z,952.7871704
2023-03-25T10:27:45.268Z,952.6842041
2023-03-25T10:28:45.759Z,952.8059082
2023-03-25T10:29:46.800Z,952.6975098
2023-03-25T10:30:47.240Z,952.7347412
2023-03-25T10:31:47.765Z,952.8206177
2023-03-25T10:32:48.840Z,952.8267212
2023-03-25T10:33:49.240Z,952.7548218
2023-03-25T10:34:49.668Z,952.7306519
2023-03-25T10:35:50.462Z,952.8336182
2023-03-25T10:36:50.642Z,952.8168945
2023-03-25T10:37:51.144Z,952.7658081
2023-03-25T10:38:51.592Z,952.8936157
2023-03-25T10:39:52.784Z,952.7279663
2023-03-25T10:40:53.369Z,953.0984497
2023-03-25T10:41:53.639Z,952.9226685
2023-03-25T10:42:54.116Z,952.9199829
2023-03-25T10:43:54.606Z,952.9135132
2023-03-25T10:44:55.100Z,952.9915771
2023-03-25T10:45:55.627Z,953.0343018
2023-03-25T10:46:55.986Z,952.9059448
2023-03-25T10:47:56.482Z,953.0418701
2023-03-25T10:48:56.932Z,953.0940552
2023-03-25T10:49:58.316Z,953.06073
2023-03-25T10:50:58.728Z,952.9820557
2023-03-25T10:51:59.278Z,953.0385132
2023-03-25T10:52:59.734Z,952.9613037
2023-03-25T10:54:00.220Z,952.9866943
2023-03-25T10:55:00.715Z,953.0723267
2023-03-25T10:56:01.065Z,953.0534668
2023-03-25T10:57:01.996Z,953.0987549
2023-03-25T10:58:32.981Z,953.0359497
2023-03-25T10:59:34.270Z,953.0525513
2023-03-25T11:00:34.865Z,953.010376
2023-03-25T11:01:35.239Z,953.0123291
2023-03-25T11:02:36.332Z,953.1531372
2023-03-25T11:03:37.574Z,953.039856
2023-03-25T11:04:38.091Z,953.0715332
2023-03-25T11:05:38.657Z,953.1550903
2023-03-25T11:06:39.014Z,953.1674805
2023-03-25T11:07:39.511Z,953.1201782
2023-03-25T11:08:39.936Z,953.1015625
2023-03-25T11:09:41.265Z,953.0801392
2023-03-25T11:10:41.706Z,953.0357666
2023-03-25T11:11:42.147Z,952.9682617
2023-03-25T11:12:43.475Z,952.9962769
2023-03-25T11:13:42.996Z,953.0840454
2023-03-25T11:14:43.463Z,953.0974731
2023-03-25T11:15:44.007Z,953.1222534
2023-03-25T11:16:44.454Z,953.1271973
2023-03-25T11:17:44.819Z,953.0596924
2023-03-25T11:18:45.217Z,953.0495605
2023-03-25T11:19:46.253Z,953.132019
2023-03-25T11:20:46.766Z,953.076416
2023-03-25T11:21:47.353Z,953.2515869
2023-03-25T11:22:47.813Z,953.1813965
2023-03-25T11:23:48.269Z,953.2385864
2023-03-25T11:24:48.701Z,953.2531738
2023-03-25T11:25:49.513Z,953.1680298
2023-03-25T11:26:49.679Z,953.2650146
2023-03-25T11:27:50.149Z,953.1306152
2023-03-25T11:28:50.558Z,953.0211182
2023-03-25T11:29:51.750Z,953.0270996
2023-03-25T11:30:52.232Z,952.977356
2023-03-25T11:31:52.655Z,953.0339355
2023-03-25T11:32:54.029Z,952.9848633
2023-03-25T11:33:54.951Z,953.0836792
2023-03-25T11:34:55.430Z,953.144043
2023-03-25T11:35:55.874Z,953.0184937
2023-03-25T11:36:56.386Z,953.0073242
2023-03-25T11:37:56.891Z,953.1102295
2023-03-25T11:38:57.444Z,953.0979004
2023-03-25T11:39:58.733Z,953.1565552
2023-03-25T11:40:59.213Z,953.1193237
2023-03-25T11:41:59.687Z,953.2059326
2023-03-25T11:43:00.155Z,953.164917
2023-03-25T11:44:00.578Z,953.2341919
2023-03-25T11:45:32.536Z,953.2061768
2023-03-25T11:46:32.399Z,953.2277832
2023-03-25T11:47:32.868Z,953.1995239
2023-03-25T11:48:33.324Z,953.31604
2023-03-25T11:49:33.793Z,953.2125854
2023-03-25T11:50:34.946Z,953.3651733
2023-03-25T11:51:35.374Z,953.3111572
2023-03-25T11:52:35.851Z,953.3223267
2023-03-25T11:53:36.295Z,953.3410645
2023-03-25T11:54:36.750Z,953.3259277
2023-03-25T11:55:37.153Z,953.319397
2023-03-25T11:56:37.617Z,953.1904907
2023-03-25T11:57:38.064Z,953.1862793
2023-03-25T11:58:38.506Z,953.1798706
2023-03-25T11:59:39.011Z,953.1543579
2023-03-25T12:00:40.464Z,953.164856
2023-03-25T12:01:40.912Z,953.1314087
2023-03-25T12:02:42.299Z,953.1660156
2023-03-25T12:03:43.366Z,953.0959473
2023-03-25T12:04:44.254Z,953.1681519
2023-03-25T12:05:44.718Z,953.0848389
2023-03-25T12:06:45.245Z,953.1721802
2023-03-25T12:07:45.613Z,953.0995483
2023-03-25T12:08:46.120Z,953.2368774
2023-03-25T12:09:46.570Z,953.1287231
2023-03-25T12:10:48.003Z,953.0873413
2023-03-25T12:11:48.607Z,953.0512695
2023-03-25T12:12:48.944Z,953.0271606
2023-03-25T12:13:49.396Z,952.9701538
2023-03-25T12:14:49.937Z,953.0709229
2023-03-25T12:15:50.623Z,953.041748
2023-03-25T12:16:50.774Z,953.1205444
2023-03-25T12:17:51.325Z,953.0457764
2023-03-25T12:18:51.684Z,953.0368652
2023-03-25T12:19:52.213Z,953.0159302
2023-03-25T12:20:53.462Z,953.0040894
2023-03-25T12:21:53.931Z,953.031311
2023-03-25T12:22:54.422Z,953.038269
2023-03-25T12:23:54.797Z,953.0488281
2023-03-25T12:24:55.270Z,953.0823364
2023-03-25T12:25:55.727Z,952.9880371
2023-03-25T12:26:56.220Z,953.0617065
2023-03-25T12:27:56.693Z,953.0703735
2023-03-25T12:28:57.106Z,953.1260376
2023-03-25T12:29:57.690Z,953.1132202
2023-03-25T12:30:58.998Z,953.1495361
2023-03-25T12:31:59.481Z,952.9348145
2023-03-25T12:33:31.767Z,952.9872437
2023-03-25T12:34:32.471Z,952.8865356
2023-03-25T12:35:32.995Z,953.1001587
2023-03-25T12:36:33.394Z,952.9901733
2023-03-25T12:37:34.486Z,952.9788818
2023-03-25T12:38:34.938Z,953.0274048
2023-03-25T12:39:42.807Z,952.9799805
2023-03-25T12:40:36.747Z,952.9390869
2023-03-25T12:41:37.267Z,953.105957
2023-03-25T12:42:37.699Z,952.9949341
2023-03-25T12:43:38.997Z,952.8286743
2023-03-25T12:44:39.483Z,952.8934326
2023-03-25T12:45:39.936Z,952.9140625
2023-03-25T12:46:40.413Z,952.8951416
2023-03-25T12:47:40.923Z,952.8180542
2023-03-25T12:48:41.336Z,953.0150757
2023-03-25T12:49:41.775Z,952.937439
2023-03-25T12:50:42.750Z,952.9358521
2023-03-25T12:51:43.245Z,952.8585205
2023-03-25T12:52:43.708Z,952.788269
2023-03-25T12:53:44.171Z,952.8670044
2023-03-25T12:54:44.682Z,952.798584
2023-03-25T12:55:45.096Z,952.8050537
2023-03-25T12:56:45.549Z,952.789856
2023-03-25T12:57:45.970Z,952.697876
2023-03-25T12:58:46.428Z,952.7768555
2023-03-25T12:59:47.746Z,952.657959
2023-03-25T13:00:48.887Z,952.7828369
2023-03-25T13:01:49.836Z,952.9460449
2023-03-25T13:02:50.718Z,952.6730347
2023-03-25T13:03:51.775Z,952.789856
2023-03-25T13:04:52.195Z,952.6777954
2023-03-25T13:05:52.639Z,952.6740723
2023-03-25T13:06:53.035Z,952.6724854
2023-03-25T13:07:54.313Z,952.6199951
2023-03-25T13:08:54.801Z,952.5698242
2023-03-25T13:09:55.272Z,952.5292358
2023-03-25T13:10:56.249Z,952.5184326
2023-03-25T13:11:56.674Z,952.5353394
2023-03-25T13:12:57.111Z,952.4899292
2023-03-25T13:13:57.609Z,952.5309448
2023-03-25T13:14:58.063Z,952.4698486
2023-03-25T13:15:59.477Z,952.4265747
2023-03-25T13:17:30.500Z,952.4492188
2023-03-25T13:18:31.670Z,952.4373169
2023-03-25T13:19:32.577Z,952.3410645
2023-03-25T13:20:33.799Z,952.3546753
2023-03-25T13:21:34.290Z,952.3476563
2023-03-25T13:22:34.814Z,952.2773438
2023-03-25T13:23:35.354Z,952.2550659
2023-03-25T13:24:35.850Z,952.383606
2023-03-25T13:25:36.468Z,952.4116211
2023-03-25T13:26:36.948Z,952.3035889
2023-03-25T13:27:37.999Z,952.3393555
2023-03-25T13:28:38.547Z,952.3760986
2023-03-25T13:29:38.957Z,952.380127
2023-03-25T13:30:40.248Z,952.404541
2023-03-25T13:31:40.724Z,952.5026855
2023-03-25T13:32:41.771Z,952.6052246
2023-03-25T13:33:42.755Z,952.4594727
2023-03-25T13:34:43.214Z,952.4858398
2023-03-25T13:35:43.680Z,952.3776855
2023-03-25T13:36:44.960Z,952.4746704
2023-03-25T13:37:45.367Z,952.5217896
2023-03-25T13:38:45.805Z,952.4776611
2023-03-25T13:39:46.792Z,952.5889282
2023-03-25T13:40:48.376Z,952.4639282
2023-03-25T13:41:49.737Z,952.3723145
2023-03-25T13:42:49.206Z,952.4658813
2023-03-25T13:43:50.464Z,952.3225098
2023-03-25T13:44:51.038Z,952.355957
2023-03-25T13:45:51.418Z,952.5772095
2023-03-25T13:46:52.756Z,952.3237305
2023-03-25T13:47:53.235Z,952.3817139
2023-03-25T13:48:53.613Z,952.430481
2023-03-25T13:49:54.128Z,952.4695435
2023-03-25T13:50:55.320Z,952.3950195
2023-03-25T13:51:55.893Z,952.2191162
2023-03-25T13:52:56.382Z,952.4053345
2023-03-25T13:53:56.861Z,952.3426514
2023-03-25T13:54:57.334Z,952.2595215
2023-03-25T13:55:57.754Z,952.2839355
2023-03-25T13:56:58.235Z,952.3398438
2023-03-25T13:57:58.653Z,952.3845215
2023-03-25T13:58:59.054Z,952.2166138
2023-03-25T14:00:29.990Z,952.367981
2023-03-25T14:01:31.039Z,952.2507935
2023-03-25T14:02:31.474Z,952.2628784
2023-03-25T14:03:32.520Z,952.3556519
2023-03-25T14:04:33.455Z,952.1698608
2023-03-25T14:05:33.942Z,952.2246704
2023-03-25T14:06:34.329Z,952.0529785
2023-03-25T14:07:34.920Z,952.2633057
2023-03-25T14:08:35.401Z,952.2330322
2023-03-25T14:09:35.833Z,952.1794434
2023-03-25T14:10:36.382Z,952.2644043
2023-03-25T14:11:37.462Z,952.1934204
2023-03-25T14:12:37.921Z,952.1646729
2023-03-25T14:13:38.378Z,952.21698
2023-03-25T14:14:38.941Z,952.1704712
2023-03-25T14:15:39.627Z,952.1115723
2023-03-25T14:16:40.047Z,952.0975952
2023-03-25T14:17:40.596Z,952.1795044
2023-03-25T14:18:41.011Z,952.2416992
2023-03-25T14:19:41.452Z,952.0404663
2023-03-25T14:20:42.014Z,952.0197144
2023-03-25T14:21:43.029Z,952.0341187
2023-03-25T14:22:44.201Z,952.1077881
2023-03-25T14:23:44.628Z,952.2556152
2023-03-25T14:24:44.420Z,952.2312622
2023-03-25T14:25:44.908Z,952.050415
2023-03-25T14:26:45.356Z,952.2011108
2023-03-25T14:27:45.806Z,952.0966187
2023-03-25T14:28:46.242Z,952.3757324
2023-03-25T14:29:46.661Z,952.4012451
2023-03-25T14:30:47.189Z,952.2369385
2023-03-25T14:31:47.568Z,952.289856
2023-03-25T14:32:48.050Z,952.3074951
2023-03-25T14:33:48.527Z,952.3234863
2023-03-25T14:34:48.990Z,952.484436
2023-03-25T14:35:49.557Z,952.779541
2023-03-25T14:36:49.851Z,952.244751
2023-03-25T14:37:50.415Z,952.4712524
2023-03-25T14:38:50.853Z,952.2473145
2023-03-25T14:39:51.336Z,952.2720337
2023-03-25T14:41:02.690Z,952.260376
2023-03-25T14:41:52.228Z,952.2235107
2023-03-25T14:42:52.680Z,952.2370605
2023-03-25T14:43:53.127Z,952.1620483
2023-03-25T14:44:53.564Z,952.1896973
2023-03-25T14:45:53.984Z,952.0570068
2023-03-25T14:46:54.496Z,952.0529175
2023-03-25T14:47:54.988Z,951.9929199
2023-03-25T14:48:55.439Z,952.0187988
2023-03-25T14:49:55.931Z,952.0002441
2023-03-25T14:50:56.490Z,951.9312744
2023-03-25T14:51:56.866Z,951.9972534
2023-03-25T14:52:57.288Z,952.0684204
2023-03-25T14:53:57.778Z,952.0136108
2023-03-25T14:54:58.351Z,952.0073242
2023-03-25T14:56:29.370Z,951.9815674
2023-03-25T14:57:29.748Z,952.1306152
2023-03-25T14:58:30.171Z,951.932373
2023-03-25T14:59:30.646Z,951.9737549
2023-03-25T15:00:31.186Z,951.902832
2023-03-25T15:01:31.630Z,951.982666
2023-03-25T15:02:32.073Z,951.9656372
2023-03-25T15:03:32.687Z,952.0631104
2023-03-25T15:04:33.109Z,951.9699707
2023-03-25T15:05:33.612Z,952.1257935
2023-03-25T15:06:34.055Z,951.8796997
2023-03-25T15:07:34.486Z,952.0065918
2023-03-25T15:08:34.979Z,951.9385986
2023-03-25T15:09:35.416Z,951.9436646
2023-03-25T15:10:35.868Z,951.8867798
2023-03-25T15:11:36.331Z,952.0228271
2023-03-25T15:12:36.729Z,951.9464722
2023-03-25T15:13:37.191Z,951.8685303
2023-03-25T15:14:37.761Z,951.9389038
2023-03-25T15:15:38.238Z,951.9223633
2023-03-25T15:16:38.889Z,952.0284424
2023-03-25T15:17:39.223Z,951.8352051
2023-03-25T15:18:39.705Z,951.9429932
2023-03-25T15:19:40.395Z,951.9598389
2023-03-25T15:20:40.919Z,951.9320068
2023-03-25T15:21:41.365Z,951.9284668
2023-03-25T15:22:41.778Z,951.892334
2023-03-25T15:23:42.257Z,951.8500977
2023-03-25T15:24:42.712Z,951.9026489
2023-03-25T15:25:43.293Z,951.8734131
2023-03-25T15:26:43.754Z,952.1351318
2023-03-25T15:27:44.296Z,951.9872437
2023-03-25T15:28:44.747Z,951.913269
2023-03-25T15:29:45.232Z,951.8331909
2023-03-25T15:30:45.667Z,951.9313965
2023-03-25T15:31:46.238Z,951.9537354
2023-03-25T15:32:46.679Z,951.9251709
2023-03-25T15:33:47.124Z,951.9672852
2023-03-25T15:34:47.572Z,951.9307251
2023-03-25T15:35:48.028Z,951.9368896
2023-03-25T15:36:48.525Z,951.9115601
2023-03-25T15:37:48.953Z,952.057251
2023-03-25T15:38:49.390Z,951.831543
2023-03-25T15:39:49.874Z,951.9089355
2023-03-25T15:40:50.524Z,951.8709106
2023-03-25T15:41:50.884Z,951.9232788
2023-03-25T15:42:51.352Z,952.0137329
2023-03-25T15:44:00.558Z,952.2693481
2023-03-25T15:44:52.214Z,951.9788818
2023-03-25T15:45:52.643Z,952.0725708
2023-03-25T15:46:53.114Z,951.9876709
2023-03-25T15:47:53.613Z,951.9620361
2023-03-25T15:48:54.022Z,952.0123291
2023-03-25T15:49:54.422Z,952.0653076
2023-03-25T15:50:54.846Z,951.9378052
2023-03-25T15:51:55.326Z,951.9517822
2023-03-25T15:52:55.773Z,952.06073
2023-03-25T15:53:56.247Z,951.9851685
2023-03-25T15:54:56.714Z,951.9018555
2023-03-25T15:55:57.174Z,951.8793945
2023-03-25T15:56:58.209Z,951.9199829
2023-03-25T15:58:28.881Z,951.9423218
2023-03-25T15:59:29.369Z,951.8950195
2023-03-25T16:00:29.825Z,951.8728027
2023-03-25T16:01:30.337Z,951.9509277
2023-03-25T16:02:30.884Z,951.8964844
2023-03-25T16:03:31.229Z,952.1696777
2023-03-25T16:04:31.638Z,951.9454956
2023-03-25T16:05:32.385Z,951.9815674
2023-03-25T16:06:32.839Z,951.9710083
2023-03-25T16:07:33.258Z,952.0145874
2023-03-25T16:08:33.648Z,952.0939941
2023-03-25T16:09:34.107Z,952.0661011
2023-03-25T16:10:34.544Z,952.0262451
2023-03-25T16:11:35.016Z,951.9918823
2023-03-25T16:12:35.519Z,952.0543823
2023-03-25T16:13:35.883Z,952.1070557
2023-03-25T16:14:38.150Z,952.0828857
2023-03-25T16:15:36.825Z,952.0661011
2023-03-25T16:16:37.326Z,951.996582
2023-03-25T16:17:37.729Z,952.0301514
2023-03-25T16:18:38.130Z,952.0307007
2023-03-25T16:19:38.636Z,951.9827881
2023-03-25T16:20:39.093Z,951.9613037
2023-03-25T16:21:39.530Z,951.9609375
2023-03-25T16:22:39.971Z,951.8851318
2023-03-25T16:23:40.414Z,951.9058838
2023-03-25T16:24:40.891Z,951.8928833
2023-03-25T16:25:41.405Z,951.9318848
2023-03-25T16:26:41.903Z,951.9094238
2023-03-25T16:27:42.574Z,951.9224854
2023-03-25T16:28:43.013Z,951.9364624
2023-03-25T16:29:43.436Z,951.9884644
2023-03-25T16:30:43.922Z,952.0293579
2023-03-25T16:31:44.368Z,951.8817749
2023-03-25T16:32:45.045Z,951.9346924
2023-03-25T16:33:45.338Z,952.027832
2023-03-25T16:34:45.790Z,951.9271851
2023-03-25T16:35:46.341Z,951.8746948
2023-03-25T16:36:46.773Z,952.128418
2023-03-25T16:37:47.267Z,951.9492188
2023-03-25T16:38:47.695Z,952.0462646
2023-03-25T16:39:48.190Z,952.0452881
2023-03-25T16:40:48.668Z,951.8619385
2023-03-25T16:41:49.248Z,951.9647827
2023-03-25T16:42:49.767Z,951.8345947
2023-03-25T16:43:50.279Z,951.8881226
2023-03-25T16:44:50.688Z,951.7729492
2023-03-25T16:45:51.148Z,951.7929688
2023-03-25T16:46:51.600Z,951.7627563
2023-03-25T16:47:52.206Z,951.7746582
2023-03-25T16:48:52.497Z,951.8087769
2023-03-25T16:49:52.961Z,951.8800049
2023-03-25T16:50:53.801Z,951.7736206
2023-03-25T16:51:54.289Z,951.7434082
2023-03-25T16:52:56.804Z,951.8618774
2023-03-25T16:53:55.302Z,951.8613281
2023-03-25T16:54:55.773Z,951.7785645
2023-03-25T16:55:56.209Z,951.8371582
2023-03-25T16:56:56.683Z,951.9301758
2023-03-25T16:58:27.865Z,951.8269043
2023-03-25T16:59:28.215Z,951.7323608
2023-03-25T17:00:28.741Z,951.7259521
2023-03-25T17:01:29.305Z,951.7028198
2023-03-25T17:02:29.703Z,951.7050171
2023-03-25T17:03:30.230Z,951.7541504
2023-03-25T17:04:30.740Z,951.710022
2023-03-25T17:05:31.252Z,951.756897
2023-03-25T17:06:31.741Z,951.7212524
2023-03-25T17:07:32.500Z,951.6268921
2023-03-25T17:08:32.988Z,951.6949463
2023-03-25T17:09:33.398Z,951.7056274
2023-03-25T17:10:33.917Z,951.7047119
2023-03-25T17:11:34.365Z,951.7370605
2023-03-25T17:12:34.776Z,951.7246094
2023-03-25T17:13:35.225Z,951.7857666
2023-03-25T17:14:35.669Z,951.701416
2023-03-25T17:15:36.162Z,951.6712646
2023-03-25T17:16:36.593Z,951.6984253
2023-03-25T17:17:37.040Z,951.6490479
2023-03-25T17:18:37.508Z,951.7648315
2023-03-25T17:19:37.942Z,951.7296753
2023-03-25T17:20:38.441Z,951.7224731
2023-03-25T17:21:38.899Z,951.6784668
2023-03-25T17:22:39.371Z,951.7124023
2023-03-25T17:23:39.786Z,951.6378784
2023-03-25T17:24:40.211Z,951.72052
2023-03-25T17:25:40.649Z,951.744873
2023-03-25T17:26:41.235Z,951.7432861
2023-03-25T17:27:43.469Z,951.7237549
2023-03-25T17:28:42.852Z,951.8534546
2023-03-25T17:29:42.643Z,951.8128662
2023-03-25T17:30:43.175Z,951.7826538
2023-03-25T17:31:43.852Z,951.8562622
2023-03-25T17:32:44.284Z,951.8134155
2023-03-25T17:33:44.765Z,951.8244019
2023-03-25T17:34:45.163Z,951.7789917
2023-03-25T17:35:45.619Z,951.8881836
2023-03-25T17:36:46.135Z,951.8081055
2023-03-25T17:37:46.618Z,951.7650146
2023-03-25T17:38:47.296Z,951.779541
2023-03-25T17:39:47.604Z,951.8087769
2023-03-25T17:40:48.083Z,951.7904663
2023-03-25T17:41:48.524Z,951.758606
2023-03-25T17:42:48.992Z,951.7460938
2023-03-25T17:43:49.485Z,951.7645264
2023-03-25T17:44:50.128Z,951.7602539
2023-03-25T17:45:50.608Z,951.717041
2023-03-25T17:46:51.085Z,951.7523193
2023-03-25T17:47:51.592Z,951.7003174
2023-03-25T17:48:52.016Z,951.7479858
2023-03-25T17:49:52.419Z,951.7472534
2023-03-25T17:50:52.986Z,951.7203369
2023-03-25T17:51:53.302Z,951.7631226
2023-03-25T17:52:53.730Z,951.7556152
2023-03-25T17:53:54.199Z,951.7727051
2023-03-25T17:54:54.665Z,951.7684326
2023-03-25T17:55:55.153Z,951.8398438
2023-03-25T17:56:55.607Z,951.8624878
2023-03-25T17:57:55.996Z,951.8964233
2023-03-25T17:59:26.941Z,951.8831177
2023-03-25T18:00:27.453Z,951.8847046
2023-03-25T18:01:27.959Z,951.8577271
2023-03-25T18:02:28.382Z,951.8641968
2023-03-25T18:03:28.814Z,951.8858032
2023-03-25T18:04:29.342Z,951.9174805
2023-03-25T18:05:29.772Z,951.9272461
2023-03-25T18:06:30.185Z,951.9435425
2023-03-25T18:07:30.603Z,951.8933105
2023-03-25T18:08:31.082Z,951.8739014
2023-03-25T18:09:31.572Z,951.9163818
2023-03-25T18:10:32.048Z,951.8737793
2023-03-25T18:11:32.651Z,951.8574829
2023-03-25T18:12:32.973Z,951.9095459
2023-03-25T18:13:33.403Z,951.8440552
2023-03-25T18:14:33.920Z,951.8392334
2023-03-25T18:15:34.389Z,951.7754517
2023-03-25T18:16:34.981Z,951.8234253
2023-03-25T18:17:35.488Z,951.881897
2023-03-25T18:18:35.908Z,951.9364014
2023-03-25T18:19:36.313Z,951.9163818
2023-03-25T18:20:36.716Z,951.84552
2023-03-25T18:21:37.168Z,951.8942261
2023-03-25T18:22:37.627Z,951.9104614
2023-03-25T18:23:38.186Z,951.9821777
2023-03-25T18:24:38.654Z,951.9547119
2023-03-25T18:25:39.053Z,951.9793701
2023-03-25T18:26:39.565Z,951.9681396
2023-03-25T18:27:43.677Z,952.0296631
2023-03-25T18:28:40.500Z,952.0349731
2023-03-25T18:29:41.078Z,951.9978027
2023-03-25T18:30:41.555Z,951.9946899
2023-03-25T18:31:41.960Z,951.9885254
2023-03-25T18:32:42.458Z,952.0015869
2023-03-25T18:33:42.974Z,952.0301514
2023-03-25T18:34:43.602Z,951.9765625
2023-03-25T18:35:44.069Z,952.0268555
2023-03-25T18:36:44.517Z,951.9642944
2023-03-25T18:37:44.965Z,952.0268555
2023-03-25T18:38:45.596Z,952.1484985
2023-03-25T18:39:46.123Z,952.1991577
2023-03-25T18:40:46.494Z,952.1668091
2023-03-25T18:41:46.934Z,952.2365112
2023-03-25T18:42:47.378Z,952.1986084
2023-03-25T18:43:47.863Z,952.1402588
2023-03-25T18:44:50.142Z,952.1077881
2023-03-25T18:45:48.908Z,952.1555176
2023-03-25T18:46:49.283Z,952.1166382
2023-03-25T18:47:49.784Z,952.133728
2023-03-25T18:48:50.218Z,952.1921997
2023-03-25T18:49:50.764Z,952.2207031
2023-03-25T18:50:51.336Z,952.1747437
2023-03-25T18:51:51.707Z,952.1132813
2023-03-25T18:52:52.136Z,952.1071777
2023-03-25T18:53:52.580Z,952.1395264
2023-03-25T18:54:53.190Z,952.1358032
2023-03-25T18:55:53.612Z,952.1746826
2023-03-25T18:56:54.149Z,952.1843872
2023-03-25T18:57:54.609Z,952.1461182
2023-03-25T18:58:55.046Z,952.1143799
2023-03-25T19:00:26.203Z,952.1439209
2023-03-25T19:01:26.730Z,952.1483765
2023-03-25T19:02:27.407Z,952.18396
2023-03-25T19:03:27.799Z,952.2212524
2023-03-25T19:04:28.312Z,952.1925659
2023-03-25T19:05:28.879Z,952.2246094
2023-03-25T19:06:29.325Z,952.192627
2023-03-25T19:07:29.774Z,952.1809082
2023-03-25T19:08:30.227Z,952.2093506
2023-03-25T19:09:30.661Z,952.1864014
2023-03-25T19:10:31.148Z,952.2139282
2023-03-25T19:11:31.590Z,952.2369385
2023-03-25T19:12:32.217Z,952.2093506
2023-03-25T19:13:32.846Z,952.1721802
2023-03-25T19:14:33.312Z,952.1679688
2023-03-25T19:15:33.797Z,952.1744385
2023-03-25T19:16:34.214Z,952.142334
2023-03-25T19:17:34.742Z,952.151123
2023-03-25T19:18:35.128Z,952.2047119
2023-03-25T19:19:35.586Z,952.1917114
2023-03-25T19:20:36.135Z,952.1872559
2023-03-25T19:21:36.455Z,952.1484375
2023-03-25T19:22:36.987Z,952.175293
2023-03-25T19:23:37.586Z,952.2067871
2023-03-25T19:24:38.078Z,952.2149048
2023-03-25T19:25:38.535Z,952.1938477
2023-03-25T19:26:38.981Z,952.1553345
2023-03-25T19:27:39.419Z,952.1338501
2023-03-25T19:28:39.898Z,952.1500244
2023-03-25T19:29:40.400Z,952.1623535
2023-03-25T19:30:40.984Z,952.1824951
2023-03-25T19:31:41.353Z,952.1574707
2023-03-25T19:32:41.853Z,952.1834106
2023-03-25T19:33:42.243Z,952.1603394
2023-03-25T19:34:42.888Z,952.1425171
2023-03-25T19:35:43.489Z,952.1262207
2023-03-25T19:36:43.873Z,952.0890503
2023-03-25T19:37:44.313Z,952.1171875
2023-03-25T19:38:44.760Z,952.1359253
2023-03-25T19:39:45.232Z,952.1295166
2023-03-25T19:40:45.819Z,952.1570435
2023-03-25T19:41:46.222Z,952.152832
2023-03-25T19:42:46.674Z,952.1560059
2023-03-25T19:43:47.106Z,952.1397705
2023-03-25T19:44:47.553Z,952.1137695
2023-03-25T19:45:48.102Z,952.1079712
2023-03-25T19:46:48.491Z,952.0656738
2023-03-25T19:47:48.947Z,952.1010132
2023-03-25T19:48:49.374Z,952.0496826
2023-03-25T19:49:49.855Z,952.064209
2023-03-25T19:50:50.520Z,952.038208
2023-03-25T19:51:50.811Z,952.0281372
2023-03-25T19:52:51.284Z,951.9940796
2023-03-25T19:53:51.806Z,951.9768677
2023-03-25T19:54:52.247Z,951.9470215
2023-03-25T19:55:52.980Z,951.9372559
2023-03-25T19:56:53.392Z,951.9039307
2023-03-25T19:57:53.885Z,951.9223633
2023-03-25T19:58:54.311Z,951.8016968
2023-03-25T20:00:25.521Z,951.8256226
2023-03-25T20:01:26.157Z,951.8136597
2023-03-25T20:02:26.711Z,951.9196167
2023-03-25T20:03:27.148Z,951.9406128
2023-03-25T20:04:27.492Z,951.9741211
2023-03-25T20:05:27.982Z,951.9283447
2023-03-25T20:06:28.507Z,951.946106
2023-03-25T20:07:28.889Z,951.9077148
2023-03-25T20:08:29.461Z,951.8953247
2023-03-25T20:09:29.938Z,951.9087524
2023-03-25T20:10:30.454Z,951.9197388
2023-03-25T20:11:30.982Z,951.9293823
2023-03-25T20:12:31.601Z,951.9289551
2023-03-25T20:13:32.072Z,951.9310913
2023-03-25T20:14:32.648Z,951.8950195
2023-03-25T20:15:33.147Z,951.8269043
2023-03-25T20:16:33.623Z,951.7973633
2023-03-25T20:17:34.022Z,951.8167114
2023-03-25T20:18:34.483Z,951.77771
2023-03-25T20:19:34.928Z,951.7890625